sensor_id;sensor_type;location;lat;lon;timestamp;temperature;humidity
32536;DHT22;18974;50.838;4.636;2022-07-24T00:01:55;19.20;99.90
32536;DHT22;18974;50.838;4.636;2022-07-24T00:04:21;19.20;99.90
32536;DHT22;18974;50.838;4.636;2022-07-24T00:06:46;19.30;99.90
32536;DHT22;18974;50.838;4.636;2022-07-24T00:09:12;19.30;99.90
32536;DHT22;18974;50.838;4.636;2022-07-24T00:11:38;19.30;99.90
32536;DHT22;18974;50.838;4.636;2022-07-24T00:14:04;19.30;99.90
32536;DHT22;18974;50.838;4.636;2022-07-24T00:16:29;19.20;99.90
32536;DHT22;18974;50.838;4.636;2022-07-24T00:18:55;19.10;99.90
32536;DHT22;18974;50.838;4.636;2022-07-24T00:21:21;19.10;99.90
32536;DHT22;18974;50.838;4.636;2022-07-24T00:23:47;19.00;99.90
32536;DHT22;18974;50.838;4.636;2022-07-24T00:26:12;19.00;99.90
32536;DHT22;18974;50.838;4.636;2022-07-24T00:28:38;19.00;99.90
32536;DHT22;18974;50.838;4.636;2022-07-24T00:31:04;19.00;99.90
32536;DHT22;18974;50.838;4.636;2022-07-24T00:33:30;19.10;99.90
32536;DHT22;18974;50.838;4.636;2022-07-24T00:35:56;19.10;99.90
32536;DHT22;18974;50.838;4.636;2022-07-24T00:38:22;18.90;99.90
32536;DHT22;18974;50.838;4.636;2022-07-24T00:40:47;19.00;99.90
32536;DHT22;18974;50.838;4.636;2022-07-24T00:43:13;18.90;99.90
32536;DHT22;18974;50.838;4.636;2022-07-24T00:45:39;18.90;99.90
32536;DHT22;18974;50.838;4.636;2022-07-24T00:48:05;18.90;99.90
32536;DHT22;18974;50.838;4.636;2022-07-24T00:50:31;19.00;99.90
32536;DHT22;18974;50.838;4.636;2022-07-24T00:52:57;18.90;99.90
32536;DHT22;18974;50.838;4.636;2022-07-24T00:55:23;18.90;99.90
32536;DHT22;18974;50.838;4.636;2022-07-24T00:57:49;18.80;99.90
32536;DHT22;18974;50.838;4.636;2022-07-24T01:00:16;18.80;99.90
32536;DHT22;18974;50.838;4.636;2022-07-24T01:02:43;18.80;99.90
32536;DHT22;18974;50.838;4.636;2022-07-24T01:05:09;18.80;99.90
32536;DHT22;18974;50.838;4.636;2022-07-24T01:07:36;18.70;99.90
32536;DHT22;18974;50.838;4.636;2022-07-24T01:10:03;18.70;99.90
32536;DHT22;18974;50.838;4.636;2022-07-24T01:12:31;18.70;99.90
32536;DHT22;18974;50.838;4.636;2022-07-24T01:14:57;18.50;99.90
32536;DHT22;18974;50.838;4.636;2022-07-24T01:17:23;18.60;99.90
32536;DHT22;18974;50.838;4.636;2022-07-24T01:19:54;18.50;99.90
32536;DHT22;18974;50.838;4.636;2022-07-24T01:22:19;18.50;99.90
32536;DHT22;18974;50.838;4.636;2022-07-24T01:24:45;18.50;99.90
32536;DHT22;18974;50.838;4.636;2022-07-24T01:27:11;18.50;99.90
32536;DHT22;18974;50.838;4.636;2022-07-24T01:29:37;18.40;99.90
32536;DHT22;18974;50.838;4.636;2022-07-24T01:32:02;18.40;99.90
32536;DHT22;18974;50.838;4.636;2022-07-24T01:34:28;18.40;99.90
32536;DHT22;18974;50.838;4.636;2022-07-24T01:36:54;18.40;99.90
32536;DHT22;18974;50.838;4.636;2022-07-24T01:39:19;18.30;99.90
32536;DHT22;18974;50.838;4.636;2022-07-24T01:41:45;18.40;99.90
32536;DHT22;18974;50.838;4.636;2022-07-24T01:44:11;18.30;99.90
32536;DHT22;18974;50.838;4.636;2022-07-24T01:46:36;18.30;99.90
32536;DHT22;18974;50.838;4.636;2022-07-24T01:49:03;18.20;99.90
32536;DHT22;18974;50.838;4.636;2022-07-24T01:51:28;18.20;99.90
32536;DHT22;18974;50.838;4.636;2022-07-24T01:53:54;18.20;99.90
32536;DHT22;18974;50.838;4.636;2022-07-24T01:56:20;18.20;99.90
32536;DHT22;18974;50.838;4.636;2022-07-24T01:58:45;18.10;99.90
32536;DHT22;18974;50.838;4.636;2022-07-24T02:01:11;18.00;99.90
32536;DHT22;18974;50.838;4.636;2022-07-24T02:03:36;18.00;99.90
32536;DHT22;18974;50.838;4.636;2022-07-24T02:06:02;18.10;99.90
32536;DHT22;18974;50.838;4.636;2022-07-24T02:08:28;18.10;99.90
32536;DHT22;18974;50.838;4.636;2022-07-24T02:10:54;18.10;99.90
32536;DHT22;18974;50.838;4.636;2022-07-24T02:13:19;18.00;99.90
32536;DHT22;18974;50.838;4.636;2022-07-24T02:15:45;18.00;99.90
32536;DHT22;18974;50.838;4.636;2022-07-24T02:18:11;18.10;99.90
32536;DHT22;18974;50.838;4.636;2022-07-24T02:20:36;18.00;99.90
32536;DHT22;18974;50.838;4.636;2022-07-24T02:23:02;18.00;99.90
32536;DHT22;18974;50.838;4.636;2022-07-24T02:25:28;17.90;99.90
32536;DHT22;18974;50.838;4.636;2022-07-24T02:27:53;17.80;99.90
32536;DHT22;18974;50.838;4.636;2022-07-24T02:30:21;17.90;99.90
32536;DHT22;18974;50.838;4.636;2022-07-24T02:32:47;17.90;99.90
32536;DHT22;18974;50.838;4.636;2022-07-24T02:35:13;17.90;99.90
32536;DHT22;18974;50.838;4.636;2022-07-24T02:37:41;17.90;99.90
32536;DHT22;18974;50.838;4.636;2022-07-24T02:40:08;17.80;99.90
32536;DHT22;18974;50.838;4.636;2022-07-24T02:42:35;17.70;99.90
32536;DHT22;18974;50.838;4.636;2022-07-24T02:45:02;17.60;99.90
32536;DHT22;18974;50.838;4.636;2022-07-24T02:47:28;17.60;99.90
32536;DHT22;18974;50.838;4.636;2022-07-24T02:49:54;17.60;99.90
32536;DHT22;18974;50.838;4.636;2022-07-24T02:52:20;17.60;99.90
32536;DHT22;18974;50.838;4.636;2022-07-24T02:54:45;17.60;99.90
32536;DHT22;18974;50.838;4.636;2022-07-24T02:57:11;17.60;99.90
32536;DHT22;18974;50.838;4.636;2022-07-24T02:59:37;17.60;99.90
32536;DHT22;18974;50.838;4.636;2022-07-24T03:02:02;17.60;99.90
32536;DHT22;18974;50.838;4.636;2022-07-24T03:04:28;17.60;99.90
32536;DHT22;18974;50.838;4.636;2022-07-24T03:06:54;17.70;99.90
32536;DHT22;18974;50.838;4.636;2022-07-24T03:09:20;17.70;99.90
32536;DHT22;18974;50.838;4.636;2022-07-24T03:11:45;17.60;99.90
32536;DHT22;18974;50.838;4.636;2022-07-24T03:14:11;17.60;99.90
32536;DHT22;18974;50.838;4.636;2022-07-24T03:16:37;17.50;99.90
32536;DHT22;18974;50.838;4.636;2022-07-24T03:19:03;17.50;99.90
32536;DHT22;18974;50.838;4.636;2022-07-24T03:21:28;17.50;99.90
32536;DHT22;18974;50.838;4.636;2022-07-24T03:23:54;17.50;99.90
32536;DHT22;18974;50.838;4.636;2022-07-24T03:26:20;17.60;99.90
32536;DHT22;18974;50.838;4.636;2022-07-24T03:28:45;17.50;99.90
32536;DHT22;18974;50.838;4.636;2022-07-24T03:31:12;17.50;99.90
32536;DHT22;18974;50.838;4.636;2022-07-24T03:33:37;17.50;99.90
32536;DHT22;18974;50.838;4.636;2022-07-24T03:36:03;17.50;99.90
32536;DHT22;18974;50.838;4.636;2022-07-24T03:38:29;17.50;99.90
32536;DHT22;18974;50.838;4.636;2022-07-24T03:40:55;17.40;99.90
32536;DHT22;18974;50.838;4.636;2022-07-24T03:43:20;17.40;99.90
32536;DHT22;18974;50.838;4.636;2022-07-24T03:45:46;17.50;99.90
32536;DHT22;18974;50.838;4.636;2022-07-24T03:48:11;17.60;99.90
32536;DHT22;18974;50.838;4.636;2022-07-24T03:50:37;17.50;99.90
32536;DHT22;18974;50.838;4.636;2022-07-24T03:53:03;17.40;99.90
32536;DHT22;18974;50.838;4.636;2022-07-24T03:55:28;17.30;99.90
32536;DHT22;18974;50.838;4.636;2022-07-24T03:57:54;17.30;99.90
32536;DHT22;18974;50.838;4.636;2022-07-24T04:00:20;17.30;99.90
32536;DHT22;18974;50.838;4.636;2022-07-24T04:02:46;17.30;99.90
32536;DHT22;18974;50.838;4.636;2022-07-24T04:05:11;17.30;99.90
32536;DHT22;18974;50.838;4.636;2022-07-24T04:07:39;17.20;99.90
32536;DHT22;18974;50.838;4.636;2022-07-24T04:10:06;17.30;99.90
32536;DHT22;18974;50.838;4.636;2022-07-24T04:12:33;17.30;99.90
32536;DHT22;18974;50.838;4.636;2022-07-24T04:14:58;17.30;99.90
32536;DHT22;18974;50.838;4.636;2022-07-24T04:17:24;17.20;99.90
32536;DHT22;18974;50.838;4.636;2022-07-24T04:19:50;17.20;99.90
32536;DHT22;18974;50.838;4.636;2022-07-24T04:22:16;17.40;99.90
32536;DHT22;18974;50.838;4.636;2022-07-24T04:24:41;17.30;99.90
32536;DHT22;18974;50.838;4.636;2022-07-24T04:27:07;17.30;99.90
32536;DHT22;18974;50.838;4.636;2022-07-24T04:29:33;17.40;99.90
32536;DHT22;18974;50.838;4.636;2022-07-24T04:31:58;17.40;99.90
32536;DHT22;18974;50.838;4.636;2022-07-24T04:34:24;17.30;99.90
32536;DHT22;18974;50.838;4.636;2022-07-24T04:36:50;17.30;99.90
32536;DHT22;18974;50.838;4.636;2022-07-24T04:39:15;17.30;99.90
32536;DHT22;18974;50.838;4.636;2022-07-24T04:41:41;17.30;99.90
32536;DHT22;18974;50.838;4.636;2022-07-24T04:44:07;17.20;99.90
32536;DHT22;18974;50.838;4.636;2022-07-24T04:46:33;17.30;99.90
32536;DHT22;18974;50.838;4.636;2022-07-24T04:48:59;17.40;99.90
32536;DHT22;18974;50.838;4.636;2022-07-24T04:51:25;17.40;99.90
32536;DHT22;18974;50.838;4.636;2022-07-24T04:53:51;17.40;99.90
32536;DHT22;18974;50.838;4.636;2022-07-24T04:56:19;17.50;99.90
32536;DHT22;18974;50.838;4.636;2022-07-24T04:58:45;17.50;99.90
32536;DHT22;18974;50.838;4.636;2022-07-24T05:01:12;17.40;99.90
32536;DHT22;18974;50.838;4.636;2022-07-24T05:03:37;17.40;99.90
32536;DHT22;18974;50.838;4.636;2022-07-24T05:06:03;17.40;99.90
32536;DHT22;18974;50.838;4.636;2022-07-24T05:08:29;17.50;99.90
32536;DHT22;18974;50.838;4.636;2022-07-24T05:10:54;17.50;99.90
32536;DHT22;18974;50.838;4.636;2022-07-24T05:13:20;17.80;99.90
32536;DHT22;18974;50.838;4.636;2022-07-24T05:15:46;17.90;99.90
32536;DHT22;18974;50.838;4.636;2022-07-24T05:18:11;18.00;99.90
32536;DHT22;18974;50.838;4.636;2022-07-24T05:20:37;18.10;99.90
32536;DHT22;18974;50.838;4.636;2022-07-24T05:23:03;18.10;99.90
32536;DHT22;18974;50.838;4.636;2022-07-24T05:25:29;18.20;99.90
32536;DHT22;18974;50.838;4.636;2022-07-24T05:27:54;18.20;99.90
32536;DHT22;18974;50.838;4.636;2022-07-24T05:30:20;18.20;99.90
32536;DHT22;18974;50.838;4.636;2022-07-24T05:32:46;18.30;99.90
32536;DHT22;18974;50.838;4.636;2022-07-24T05:35:11;18.50;99.90
32536;DHT22;18974;50.838;4.636;2022-07-24T05:37:37;18.60;99.90
32536;DHT22;18974;50.838;4.636;2022-07-24T05:40:03;18.70;99.90
32536;DHT22;18974;50.838;4.636;2022-07-24T05:42:29;18.80;99.90
32536;DHT22;18974;50.838;4.636;2022-07-24T05:44:55;18.90;99.90
32536;DHT22;18974;50.838;4.636;2022-07-24T05:47:20;19.10;99.90
32536;DHT22;18974;50.838;4.636;2022-07-24T05:49:46;19.10;99.90
32536;DHT22;18974;50.838;4.636;2022-07-24T05:52:12;19.30;99.90
32536;DHT22;18974;50.838;4.636;2022-07-24T05:54:37;19.40;99.90
32536;DHT22;18974;50.838;4.636;2022-07-24T05:57:03;19.50;99.90
32536;DHT22;18974;50.838;4.636;2022-07-24T05:59:29;19.70;99.90
32536;DHT22;18974;50.838;4.636;2022-07-24T06:01:54;19.90;99.90
32536;DHT22;18974;50.838;4.636;2022-07-24T06:04:20;19.90;99.90
32536;DHT22;18974;50.838;4.636;2022-07-24T06:06:46;19.90;99.90
32536;DHT22;18974;50.838;4.636;2022-07-24T06:09:11;20.00;99.90
32536;DHT22;18974;50.838;4.636;2022-07-24T06:11:37;20.20;99.90
32536;DHT22;18974;50.838;4.636;2022-07-24T06:14:03;20.30;99.90
32536;DHT22;18974;50.838;4.636;2022-07-24T06:16:29;20.40;99.90
32536;DHT22;18974;50.838;4.636;2022-07-24T06:18:54;20.50;99.90
32536;DHT22;18974;50.838;4.636;2022-07-24T06:21:20;20.60;99.90
32536;DHT22;18974;50.838;4.636;2022-07-24T06:23:46;20.70;99.90
32536;DHT22;18974;50.838;4.636;2022-07-24T06:26:11;20.80;99.90
32536;DHT22;18974;50.838;4.636;2022-07-24T06:28:37;20.80;99.90
32536;DHT22;18974;50.838;4.636;2022-07-24T06:31:03;21.00;99.90
32536;DHT22;18974;50.838;4.636;2022-07-24T06:33:28;21.00;99.90
32536;DHT22;18974;50.838;4.636;2022-07-24T06:35:54;21.10;99.90
32536;DHT22;18974;50.838;4.636;2022-07-24T06:38:20;21.20;99.90
32536;DHT22;18974;50.838;4.636;2022-07-24T06:40:45;21.30;99.90
32536;DHT22;18974;50.838;4.636;2022-07-24T06:43:11;21.40;99.90
32536;DHT22;18974;50.838;4.636;2022-07-24T06:45:37;21.40;99.90
32536;DHT22;18974;50.838;4.636;2022-07-24T06:48:04;21.60;99.90
32536;DHT22;18974;50.838;4.636;2022-07-24T06:50:30;21.70;99.90
32536;DHT22;18974;50.838;4.636;2022-07-24T06:52:55;21.80;99.90
32536;DHT22;18974;50.838;4.636;2022-07-24T06:55:21;21.80;99.90
32536;DHT22;18974;50.838;4.636;2022-07-24T06:57:47;22.00;99.90
32536;DHT22;18974;50.838;4.636;2022-07-24T07:00:13;22.20;99.90
32536;DHT22;18974;50.838;4.636;2022-07-24T07:02:40;22.30;99.90
32536;DHT22;18974;50.838;4.636;2022-07-24T07:05:07;22.40;99.90
32536;DHT22;18974;50.838;4.636;2022-07-24T07:07:34;22.60;99.90
32536;DHT22;18974;50.838;4.636;2022-07-24T07:10:00;22.80;99.90
32536;DHT22;18974;50.838;4.636;2022-07-24T07:12:26;22.90;99.90
32536;DHT22;18974;50.838;4.636;2022-07-24T07:14:55;23.00;99.90
32536;DHT22;18974;50.838;4.636;2022-07-24T07:17:24;23.10;99.90
32536;DHT22;18974;50.838;4.636;2022-07-24T07:19:49;23.10;99.90
32536;DHT22;18974;50.838;4.636;2022-07-24T07:22:15;23.20;99.90
32536;DHT22;18974;50.838;4.636;2022-07-24T07:24:41;23.30;99.90
32536;DHT22;18974;50.838;4.636;2022-07-24T07:27:06;23.50;99.90
32536;DHT22;18974;50.838;4.636;2022-07-24T07:29:32;23.60;99.90
32536;DHT22;18974;50.838;4.636;2022-07-24T07:31:58;23.70;99.90
32536;DHT22;18974;50.838;4.636;2022-07-24T07:34:23;23.80;99.90
32536;DHT22;18974;50.838;4.636;2022-07-24T07:36:49;24.00;99.90
32536;DHT22;18974;50.838;4.636;2022-07-24T07:39:14;24.10;99.90
32536;DHT22;18974;50.838;4.636;2022-07-24T07:41:40;24.20;99.90
32536;DHT22;18974;50.838;4.636;2022-07-24T07:44:06;24.40;99.90
32536;DHT22;18974;50.838;4.636;2022-07-24T07:46:32;24.40;99.90
32536;DHT22;18974;50.838;4.636;2022-07-24T07:48:57;24.60;99.90
32536;DHT22;18974;50.838;4.636;2022-07-24T07:51:23;24.60;99.90
32536;DHT22;18974;50.838;4.636;2022-07-24T07:53:49;24.70;99.90
32536;DHT22;18974;50.838;4.636;2022-07-24T07:56:14;24.80;99.90
32536;DHT22;18974;50.838;4.636;2022-07-24T07:58:40;24.90;99.70
32536;DHT22;18974;50.838;4.636;2022-07-24T08:01:06;24.90;99.60
32536;DHT22;18974;50.838;4.636;2022-07-24T08:03:31;25.00;99.50
32536;DHT22;18974;50.838;4.636;2022-07-24T08:05:57;25.10;99.70
32536;DHT22;18974;50.838;4.636;2022-07-24T08:08:23;25.20;98.70
32536;DHT22;18974;50.838;4.636;2022-07-24T08:10:48;25.40;99.20
32536;DHT22;18974;50.838;4.636;2022-07-24T08:13:14;25.50;99.00
32536;DHT22;18974;50.838;4.636;2022-07-24T08:15:41;25.60;98.40
32536;DHT22;18974;50.838;4.636;2022-07-24T08:18:07;25.80;97.40
32536;DHT22;18974;50.838;4.636;2022-07-24T08:20:33;25.90;96.50
32536;DHT22;18974;50.838;4.636;2022-07-24T08:22:58;26.00;95.90
32536;DHT22;18974;50.838;4.636;2022-07-24T08:25:25;26.10;96.60
32536;DHT22;18974;50.838;4.636;2022-07-24T08:27:51;26.20;96.30
32536;DHT22;18974;50.838;4.636;2022-07-24T08:30:17;26.20;95.30
32536;DHT22;18974;50.838;4.636;2022-07-24T08:32:44;26.20;94.40
32536;DHT22;18974;50.838;4.636;2022-07-24T08:35:09;26.30;95.00
32536;DHT22;18974;50.838;4.636;2022-07-24T08:37:40;26.50;95.80
32536;DHT22;18974;50.838;4.636;2022-07-24T08:40:07;26.80;94.60
32536;DHT22;18974;50.838;4.636;2022-07-24T08:42:35;26.90;94.30
32536;DHT22;18974;50.838;4.636;2022-07-24T08:45:01;26.90;94.30
32536;DHT22;18974;50.838;4.636;2022-07-24T08:47:28;27.00;94.40
32536;DHT22;18974;50.838;4.636;2022-07-24T08:49:55;27.10;94.60
32536;DHT22;18974;50.838;4.636;2022-07-24T08:52:24;27.20;94.90
32536;DHT22;18974;50.838;4.636;2022-07-24T08:54:50;27.40;94.20
32536;DHT22;18974;50.838;4.636;2022-07-24T08:57:16;27.50;93.20
32536;DHT22;18974;50.838;4.636;2022-07-24T08:59:42;27.50;93.10
32536;DHT22;18974;50.838;4.636;2022-07-24T09:02:08;27.50;93.10
32536;DHT22;18974;50.838;4.636;2022-07-24T09:04:45;27.70;93.00
32536;DHT22;18974;50.838;4.636;2022-07-24T09:07:12;27.80;91.80
32536;DHT22;18974;50.838;4.636;2022-07-24T09:09:39;27.90;93.00
32536;DHT22;18974;50.838;4.636;2022-07-24T09:12:16;28.00;91.80
32536;DHT22;18974;50.838;4.636;2022-07-24T09:14:46;28.20;91.80
32536;DHT22;18974;50.838;4.636;2022-07-24T09:17:13;28.30;91.80
32536;DHT22;18974;50.838;4.636;2022-07-24T09:19:51;28.50;92.20
32536;DHT22;18974;50.838;4.636;2022-07-24T09:22:38;28.50;92.10
32536;DHT22;18974;50.838;4.636;2022-07-24T09:30:35;28.70;88.40
32536;DHT22;18974;50.838;4.636;2022-07-24T09:35:48;29.00;90.50
32536;DHT22;18974;50.838;4.636;2022-07-24T09:38:19;29.00;88.20
32536;DHT22;18974;50.838;4.636;2022-07-24T09:40:56;29.10;90.20
32536;DHT22;18974;50.838;4.636;2022-07-24T09:43:32;29.10;89.20
32536;DHT22;18974;50.838;4.636;2022-07-24T09:46:11;29.20;89.30
32536;DHT22;18974;50.838;4.636;2022-07-24T09:48:48;29.40;88.40
32536;DHT22;18974;50.838;4.636;2022-07-24T09:51:17;29.60;90.10
32536;DHT22;18974;50.838;4.636;2022-07-24T09:53:52;29.60;87.20
32536;DHT22;18974;50.838;4.636;2022-07-24T09:56:19;29.60;88.60
32536;DHT22;18974;50.838;4.636;2022-07-24T10:01:12;29.50;88.00
32536;DHT22;18974;50.838;4.636;2022-07-24T10:03:41;29.70;87.10
32536;DHT22;18974;50.838;4.636;2022-07-24T10:06:09;29.80;89.40
32536;DHT22;18974;50.838;4.636;2022-07-24T10:08:38;29.90;86.30
32536;DHT22;18974;50.838;4.636;2022-07-24T10:11:04;30.00;87.30
32536;DHT22;18974;50.838;4.636;2022-07-24T10:13:30;29.90;86.10
32536;DHT22;18974;50.838;4.636;2022-07-24T10:18:46;30.20;88.00
32536;DHT22;18974;50.838;4.636;2022-07-24T10:21:23;30.30;87.60
32536;DHT22;18974;50.838;4.636;2022-07-24T10:29:21;30.60;84.50
32536;DHT22;18974;50.838;4.636;2022-07-24T10:31:49;30.80;83.10
32536;DHT22;18974;50.838;4.636;2022-07-24T11:01:37;31.60;81.40
32536;DHT22;18974;50.838;4.636;2022-07-24T11:04:24;31.60;80.10
32536;DHT22;18974;50.838;4.636;2022-07-24T11:06:56;31.70;79.60
32536;DHT22;18974;50.838;4.636;2022-07-24T11:09:23;31.70;80.30
32536;DHT22;18974;50.838;4.636;2022-07-24T11:14:26;31.80;81.60
32536;DHT22;18974;50.838;4.636;2022-07-24T11:16:52;31.90;79.70
32536;DHT22;18974;50.838;4.636;2022-07-24T11:21:45;31.90;79.60
32536;DHT22;18974;50.838;4.636;2022-07-24T11:27:02;31.90;78.70
32536;DHT22;18974;50.838;4.636;2022-07-24T11:29:32;32.10;77.90
32536;DHT22;18974;50.838;4.636;2022-07-24T11:32:03;32.00;78.40
32536;DHT22;18974;50.838;4.636;2022-07-24T11:34:30;32.10;78.90
32536;DHT22;18974;50.838;4.636;2022-07-24T11:36:57;32.20;80.10
32536;DHT22;18974;50.838;4.636;2022-07-24T11:39:36;32.30;75.10
32536;DHT22;18974;50.838;4.636;2022-07-24T11:42:08;32.40;77.80
32536;DHT22;18974;50.838;4.636;2022-07-24T11:44:37;32.50;78.90
32536;DHT22;18974;50.838;4.636;2022-07-24T11:47:14;32.50;79.80
32536;DHT22;18974;50.838;4.636;2022-07-24T11:49:46;32.60;79.20
32536;DHT22;18974;50.838;4.636;2022-07-24T11:52:29;32.60;79.80
32536;DHT22;18974;50.838;4.636;2022-07-24T11:55:05;32.70;79.60
32536;DHT22;18974;50.838;4.636;2022-07-24T11:57:34;32.70;78.60
32536;DHT22;18974;50.838;4.636;2022-07-24T12:00:01;32.70;79.90
32536;DHT22;18974;50.838;4.636;2022-07-24T12:02:28;32.80;78.70
32536;DHT22;18974;50.838;4.636;2022-07-24T12:04:54;32.90;80.00
32536;DHT22;18974;50.838;4.636;2022-07-24T12:07:25;32.90;78.00
32536;DHT22;18974;50.838;4.636;2022-07-24T12:09:54;32.40;77.30
32536;DHT22;18974;50.838;4.636;2022-07-24T12:12:22;32.40;78.70
32536;DHT22;18974;50.838;4.636;2022-07-24T12:14:51;32.50;80.10
32536;DHT22;18974;50.838;4.636;2022-07-24T12:17:17;32.60;78.70
32536;DHT22;18974;50.838;4.636;2022-07-24T12:19:54;32.80;77.60
32536;DHT22;18974;50.838;4.636;2022-07-24T12:22:22;33.00;79.70
32536;DHT22;18974;50.838;4.636;2022-07-24T12:24:49;33.00;78.10
32536;DHT22;18974;50.838;4.636;2022-07-24T12:27:32;33.10;78.40
32536;DHT22;18974;50.838;4.636;2022-07-24T12:29:59;33.20;78.90
32536;DHT22;18974;50.838;4.636;2022-07-24T12:32:24;33.30;77.30
32536;DHT22;18974;50.838;4.636;2022-07-24T12:34:52;33.40;76.90
32536;DHT22;18974;50.838;4.636;2022-07-24T12:37:20;33.20;78.10
32536;DHT22;18974;50.838;4.636;2022-07-24T12:39:50;33.00;79.00
32536;DHT22;18974;50.838;4.636;2022-07-24T12:42:17;33.20;77.70
32536;DHT22;18974;50.838;4.636;2022-07-24T12:44:45;33.20;76.80
32536;DHT22;18974;50.838;4.636;2022-07-24T12:47:11;33.40;76.90
32536;DHT22;18974;50.838;4.636;2022-07-24T12:49:45;33.40;76.20
32536;DHT22;18974;50.838;4.636;2022-07-24T12:52:23;33.60;77.30
32536;DHT22;18974;50.838;4.636;2022-07-24T12:54:50;33.60;79.10
32536;DHT22;18974;50.838;4.636;2022-07-24T12:57:20;33.60;78.10
32536;DHT22;18974;50.838;4.636;2022-07-24T12:59:48;33.60;75.20
32536;DHT22;18974;50.838;4.636;2022-07-24T13:02:24;33.60;77.30
32536;DHT22;18974;50.838;4.636;2022-07-24T13:04:52;33.70;76.00
32536;DHT22;18974;50.838;4.636;2022-07-24T13:07:21;33.80;77.90
32536;DHT22;18974;50.838;4.636;2022-07-24T13:09:47;33.80;76.80
32536;DHT22;18974;50.838;4.636;2022-07-24T13:12:13;33.90;77.00
32536;DHT22;18974;50.838;4.636;2022-07-24T13:14:39;33.80;77.00
32536;DHT22;18974;50.838;4.636;2022-07-24T13:17:11;33.80;77.00
32536;DHT22;18974;50.838;4.636;2022-07-24T13:19:38;33.80;76.60
32536;DHT22;18974;50.838;4.636;2022-07-24T13:22:04;33.90;77.90
32536;DHT22;18974;50.838;4.636;2022-07-24T13:24:30;33.90;78.10
32536;DHT22;18974;50.838;4.636;2022-07-24T13:26:58;33.80;78.20
32536;DHT22;18974;50.838;4.636;2022-07-24T13:29:24;33.80;78.80
32536;DHT22;18974;50.838;4.636;2022-07-24T13:31:51;33.70;77.30
32536;DHT22;18974;50.838;4.636;2022-07-24T13:34:18;33.70;77.90
32536;DHT22;18974;50.838;4.636;2022-07-24T13:36:43;33.70;78.40
32536;DHT22;18974;50.838;4.636;2022-07-24T13:39:09;33.60;76.70
32536;DHT22;18974;50.838;4.636;2022-07-24T13:41:36;33.60;75.10
32536;DHT22;18974;50.838;4.636;2022-07-24T13:44:03;33.70;75.30
32536;DHT22;18974;50.838;4.636;2022-07-24T13:46:30;33.70;79.60
32536;DHT22;18974;50.838;4.636;2022-07-24T13:48:56;33.70;76.90
32536;DHT22;18974;50.838;4.636;2022-07-24T13:51:21;33.70;75.70
32536;DHT22;18974;50.838;4.636;2022-07-24T13:53:47;33.70;75.00
32536;DHT22;18974;50.838;4.636;2022-07-24T13:56:13;33.70;77.80
32536;DHT22;18974;50.838;4.636;2022-07-24T13:58:39;33.70;78.10
32536;DHT22;18974;50.838;4.636;2022-07-24T14:01:07;33.60;76.30
32536;DHT22;18974;50.838;4.636;2022-07-24T14:03:33;33.30;75.60
32536;DHT22;18974;50.838;4.636;2022-07-24T14:06:00;33.40;74.90
32536;DHT22;18974;50.838;4.636;2022-07-24T14:08:27;33.30;75.90
32536;DHT22;18974;50.838;4.636;2022-07-24T14:10:53;33.10;76.70
32536;DHT22;18974;50.838;4.636;2022-07-24T14:13:19;33.10;78.90
32536;DHT22;18974;50.838;4.636;2022-07-24T14:15:45;33.10;80.80
32536;DHT22;18974;50.838;4.636;2022-07-24T14:18:12;33.00;79.90
32536;DHT22;18974;50.838;4.636;2022-07-24T14:20:38;32.90;77.40
32536;DHT22;18974;50.838;4.636;2022-07-24T14:23:04;32.80;79.60
32536;DHT22;18974;50.838;4.636;2022-07-24T14:25:29;32.80;81.90
32536;DHT22;18974;50.838;4.636;2022-07-24T14:27:55;32.90;79.90
32536;DHT22;18974;50.838;4.636;2022-07-24T14:30:22;32.80;78.00
32536;DHT22;18974;50.838;4.636;2022-07-24T14:32:47;32.70;80.10
32536;DHT22;18974;50.838;4.636;2022-07-24T14:35:13;32.60;80.20
32536;DHT22;18974;50.838;4.636;2022-07-24T14:37:39;32.70;79.60
32536;DHT22;18974;50.838;4.636;2022-07-24T14:40:06;32.50;81.50
32536;DHT22;18974;50.838;4.636;2022-07-24T14:42:32;32.50;78.60
32536;DHT22;18974;50.838;4.636;2022-07-24T14:44:58;32.40;77.20
32536;DHT22;18974;50.838;4.636;2022-07-24T14:47:24;32.40;79.30
32536;DHT22;18974;50.838;4.636;2022-07-24T14:49:50;32.20;80.60
32536;DHT22;18974;50.838;4.636;2022-07-24T14:52:15;32.10;77.30
32536;DHT22;18974;50.838;4.636;2022-07-24T14:54:45;32.00;79.20
32536;DHT22;18974;50.838;4.636;2022-07-24T14:57:11;31.80;80.10
32536;DHT22;18974;50.838;4.636;2022-07-24T14:59:37;31.80;81.60
32536;DHT22;18974;50.838;4.636;2022-07-24T15:02:03;31.80;79.20
32536;DHT22;18974;50.838;4.636;2022-07-24T15:04:28;31.70;82.70
32536;DHT22;18974;50.838;4.636;2022-07-24T15:06:54;31.70;80.70
32536;DHT22;18974;50.838;4.636;2022-07-24T15:09:19;31.60;78.30
32536;DHT22;18974;50.838;4.636;2022-07-24T15:11:45;31.60;78.80
32536;DHT22;18974;50.838;4.636;2022-07-24T15:14:11;31.60;80.30
32536;DHT22;18974;50.838;4.636;2022-07-24T15:16:36;31.50;80.30
32536;DHT22;18974;50.838;4.636;2022-07-24T15:19:02;31.50;80.40
32536;DHT22;18974;50.838;4.636;2022-07-24T15:21:28;31.40;78.30
32536;DHT22;18974;50.838;4.636;2022-07-24T15:23:53;31.30;79.60
32536;DHT22;18974;50.838;4.636;2022-07-24T15:26:19;31.30;80.80
32536;DHT22;18974;50.838;4.636;2022-07-24T15:28:45;31.30;77.40
32536;DHT22;18974;50.838;4.636;2022-07-24T15:31:10;31.30;79.20
32536;DHT22;18974;50.838;4.636;2022-07-24T15:33:36;31.20;80.00
32536;DHT22;18974;50.838;4.636;2022-07-24T15:36:02;31.20;79.30
32536;DHT22;18974;50.838;4.636;2022-07-24T15:38:28;31.10;79.00
32536;DHT22;18974;50.838;4.636;2022-07-24T15:40:54;31.00;80.00
32536;DHT22;18974;50.838;4.636;2022-07-24T15:43:20;31.00;81.70
32536;DHT22;18974;50.838;4.636;2022-07-24T15:45:46;30.90;81.40
32536;DHT22;18974;50.838;4.636;2022-07-24T15:48:12;30.90;82.70
32536;DHT22;18974;50.838;4.636;2022-07-24T15:50:37;30.80;81.70
32536;DHT22;18974;50.838;4.636;2022-07-24T15:53:03;30.70;81.40
32536;DHT22;18974;50.838;4.636;2022-07-24T15:55:29;30.70;82.70
32536;DHT22;18974;50.838;4.636;2022-07-24T15:57:54;30.70;81.20
32536;DHT22;18974;50.838;4.636;2022-07-24T16:00:20;30.70;79.30
32536;DHT22;18974;50.838;4.636;2022-07-24T16:02:46;30.70;82.60
32536;DHT22;18974;50.838;4.636;2022-07-24T16:05:11;30.70;81.30
32536;DHT22;18974;50.838;4.636;2022-07-24T16:07:37;30.70;79.70
32536;DHT22;18974;50.838;4.636;2022-07-24T16:10:04;30.70;80.80
32536;DHT22;18974;50.838;4.636;2022-07-24T16:12:30;30.70;81.80
32536;DHT22;18974;50.838;4.636;2022-07-24T16:14:56;30.70;79.80
32536;DHT22;18974;50.838;4.636;2022-07-24T16:17:21;30.70;81.10
32536;DHT22;18974;50.838;4.636;2022-07-24T16:19:47;30.70;85.20
32536;DHT22;18974;50.838;4.636;2022-07-24T16:22:13;30.60;83.50